Latest Coastal Weather Observations for Rosslyn Bay Harbour

IDQ60701

Issued at 8:15 pm EST Thursday 23 October 2014 (issued every 10 minutes, with the page automatically refreshed every 10 minutes)

About coastal observations | Map of coastal stations | Coastal observations for QLD | Marine services | Other Formats
Station Details ID: 033208 Name: ROSSLYN BAY NTC AWS Lat: -23.16 Lon: 150.79 Height: 0.0 m
Data from the previous 72 hours. | See also: Recent months for locations in Queensland
Date/Time
EST
Temp

°C
Wind Pressure Rain
since 9am
mm
Weather Cloud Vis
km
Sea
Height
m
Swell
Dir
 
Speed
knots
Gust
knots
hPa Trend Height
m
Period
s
Dir
23/08:00pm 22.1 ENE 4 9 1019.7 - - - - - - - - -
23/07:30pm 22.2 E 3 11 1019.2 - - - - - - - - -
23/07:00pm 22.1 ESE 3 13 1019.0 - - - - - - - - -
23/06:30pm 22.3 E 4 10 1018.5 - - - - - - - - -
23/06:00pm 22.4 E 4 12 1018.3 - - - - - - - - -
23/05:30pm 22.7 E 5 11 1018.2 - - - - - - - - -
23/05:00pm 22.9 ENE 4 11 1018.2 - - - - - - - - -
23/04:30pm 23.0 E 3 10 1017.8 - - - - - - - - -
23/04:00pm 23.2 E 2 8 1017.7 - - - - - - - - -
23/03:30pm 23.0 E 5 13 1017.6 - - - - - - - - -
23/03:00pm 22.9 E 3 12 1017.6 - - - - - - - - -
23/02:30pm 22.8 SW 5 11 1018.1 - - - - - - - - -
23/02:00pm 23.0 S 7 12 1018.5 - - - - - - - - -
23/01:30pm 23.2 S 4 9 1018.5 - - - - - - - - -
23/01:00pm 23.2 S 4 9 1018.8 - - - - - - - - -
23/12:30pm 23.1 S 4 8 1019.2 - - - - - - - - -
23/12:00pm 22.9 S 4 9 1019.6 - - - - - - - - -
23/11:30am 22.8 S 6 11 1020.0 - - - - - - - - -
23/11:00am 22.1 S 8 12 1020.3 - - - - - - - - -
23/10:30am 22.1 S 7 13 1020.7 - - - - - - - - -
23/10:00am 22.0 S 7 15 1021.1 - - - - - - - - -
23/09:30am 21.6 S 7 14 1021.2 - - - - - - - - -
23/09:00am 21.6 S 6 13 1021.2 - - - - - - - - -
23/08:30am 21.3 S 6 14 1021.3 - - - - - - - - -
23/08:00am 20.8 S 7 13 1021.3 - - - - - - - - -
23/07:30am 20.8 S 6 13 1021.1 - - - - - - - - -
23/07:00am 20.1 S 5 10 1021.0 - - - - - - - - -
23/06:30am 19.4 SSW 6 11 1020.8 - - - - - - - - -
23/06:00am 18.9 SSW 5 9 1020.6 - - - - - - - - -
23/05:30am 18.9 SSW 5 8 1020.3 - - - - - - - - -
23/05:00am 20.6 S 8 13 1020.3 - - - - - - - - -
23/04:30am 21.3 S 5 9 1019.8 - - - - - - - - -
23/04:00am 21.4 S 5 10 1019.7 - - - - - - - - -
23/03:30am 21.4 S 6 10 1019.7 - - - - - - - - -
23/03:00am 21.5 S 4 10 1019.7 - - - - - - - - -
23/02:30am 21.5 S 7 12 1019.9 - - - - - - - - -
23/02:00am 21.5 S 8 12 1020.1 - - - - - - - - -
23/01:30am 21.5 S 7 12 1020.4 - - - - - - - - -
23/01:00am 21.7 S 8 14 1020.8 - - - - - - - - -
23/12:30am 21.7 S 6 12 1021.1 - - - - - - - - -
23/12:00am 21.8 S 6 12 1021.4 - - - - - - - - -
 
Date/Time
EST
Temp

°C
Wind Pressure Rain
since 9am
mm
Weather Cloud Vis
km
Sea
Height
m
Swell
Dir
 
Speed
knots
Gust
knots
hPa Trend Height
m
Period
s
Dir
22/11:30pm 21.9 S 9 14 1021.6 - - - - - - - - -
22/11:00pm 21.9 S 7 14 1021.7 - - - - - - - - -
22/10:30pm 22.0 S 7 13 1021.7 - - - - - - - - -
22/10:00pm 22.0 S 6 13 1021.5 - - - - - - - - -
22/09:30pm 22.0 S 6 13 1021.5 - - - - - - - - -
22/09:00pm 22.1 SSW 7 13 1021.4 - - - - - - - - -
22/08:30pm 22.1 SSW 5 12 1021.1 - - - - - - - - -
22/08:00pm 22.2 SSW 5 13 1020.9 - - - - - - - - -
22/07:30pm 22.3 S 5 17 1020.8 - - - - - - - - -
22/07:00pm 22.3 S 5 14 1020.6 - - - - - - - - -
22/06:30pm 22.3 S 5 11 1020.4 - - - - - - - - -
22/06:00pm 22.4 SW 6 14 1020.0 - - - - - - - - -
22/05:30pm 22.8 SW 5 13 1019.8 - - - - - - - - -
22/05:00pm 23.0 SSW 6 14 1019.6 - - - - - - - - -
22/04:30pm 23.2 S 6 14 1019.5 - - - - - - - - -
22/04:00pm 23.0 S 6 14 1019.3 - - - - - - - - -
22/03:30pm 23.1 S 6 12 1019.3 - - - - - - - - -
22/03:00pm 23.2 S 5 12 1019.4 - - - - - - - - -
22/02:30pm 23.1 SSW 4 12 1019.6 - - - - - - - - -
22/02:00pm 23.0 S 6 12 1020.1 - - - - - - - - -
22/01:30pm 22.6 S 7 15 1020.4 - - - - - - - - -
22/01:00pm 22.5 S 8 14 1020.8 - - - - - - - - -
22/12:30pm 22.6 S 8 17 1021.2 - - - - - - - - -
22/12:00pm 22.4 S 10 16 1021.7 - - - - - - - - -
22/11:30am 22.6 S 9 15 1022.1 - - - - - - - - -
22/11:00am 22.0 S 10 16 1022.4 - - - - - - - - -
22/10:30am 22.6 S 10 16 1022.6 - - - - - - - - -
22/10:00am 22.5 S 10 18 1022.8 - - - - - - - - -
22/09:30am 22.2 S 9 18 1023.0 - - - - - - - - -
22/09:00am 22.1 S 9 16 1023.0 - - - - - - - - -
22/08:30am 21.4 S 8 14 1023.2 - - - - - - - - -
22/08:00am 21.5 S 8 15 1022.8 - - - - - - - - -
22/07:30am 21.2 S 7 15 1022.6 - - - - - - - - -
22/07:00am 21.2 S 9 17 1022.4 - - - - - - - - -
22/06:30am 21.3 S 7 15 1022.3 - - - - - - - - -
22/06:00am 21.4 S 7 14 1022.0 - - - - - - - - -
22/05:30am 21.3 S 8 15 1021.6 - - - - - - - - -
22/05:00am 21.4 S 9 16 1021.2 - - - - - - - - -
22/04:30am 21.4 S 7 13 1021.1 - - - - - - - - -
22/04:00am 20.7 S 10 20 1021.1 - - - - - - - - -
22/03:30am 22.2 S 8 12 1021.0 - - - - - - - - -
22/03:00am 22.1 S 7 13 1021.2 - - - - - - - - -
22/02:30am 22.0 S 7 13 1021.5 - - - - - - - - -
22/02:00am 22.0 S 8 13 1021.6 - - - - - - - - -
22/01:30am 22.0 S 8 12 1022.0 - - - - - - - - -
22/01:00am 22.1 S 7 14 1022.5 - - - - - - - - -
22/12:30am 22.1 S 8 13 1022.9 - - - - - - - - -
22/12:00am 22.1 S 8 14 1023.2 - - - - - - - - -
 
Date/Time
EST
Temp

°C
Wind Pressure Rain
since 9am
mm
Weather Cloud Vis
km
Sea
Height
m
Swell
Dir
 
Speed
knots
Gust
knots
hPa Trend Height
m
Period
s
Dir
21/11:30pm 22.2 S 8 16 1023.4 - - - - - - - - -
21/11:00pm 22.2 S 9 15 1023.7 - - - - - - - - -
21/10:30pm 22.2 S 9 15 1023.8 - - - - - - - - -
21/10:00pm 22.3 S 9 15 1024.0 - - - - - - - - -
21/09:30pm 22.3 S 12 19 1024.0 - - - - - - - - -
21/09:00pm 22.3 S 10 16 1023.9 - - - - - - - - -
21/08:30pm 22.3 S 12 19 1023.8 - - - - - - - - -
21/08:00pm 22.3 S 9 18 1023.4 - - - - - - - - -
21/07:30pm 22.4 S 9 16 1023.2 - - - - - - - - -
21/07:00pm 22.5 SSW 9 21 1022.3 - - - - - - - - -
21/06:30pm 22.5 SSW 7 16 1022.3 - - - - - - - - -
21/06:00pm 22.4 S 6 15 1022.5 - - - - - - - - -
21/05:30pm 22.6 S 7 15 1022.1 - - - - - - - - -
21/05:00pm 22.7 S 7 14 1022.0 - - - - - - - - -
21/04:30pm 22.9 S 6 14 1021.7 - - - - - - - - -
21/04:00pm 23.1 S 6 13 1021.5 - - - - - - - - -
21/03:30pm 23.1 S 9 15 1021.6 - - - - - - - - -
21/03:00pm 22.9 S 11 17 1021.5 - - - - - - - - -
21/02:30pm 22.9 S 12 19 1021.6 - - - - - - - - -
21/02:00pm 23.0 S 11 18 1021.9 - - - - - - - - -
21/01:30pm 23.1 S 11 17 1022.2 - - - - - - - - -
21/01:00pm 23.3 S 11 16 1022.7 - - - - - - - - -
21/12:30pm 23.0 S 10 18 1023.1 - - - - - - - - -
21/12:00pm 22.9 S 10 18 1023.3 - - - - - - - - -
21/11:30am 22.9 S 10 19 1023.7 - - - - - - - - -
21/11:00am 22.8 S 10 18 1024.0 - - - - - - - - -
21/10:30am 22.3 S 11 20 1024.3 - - - - - - - - -
21/10:00am 22.1 S 10 20 1024.4 - - - - - - - - -
21/09:30am 22.2 SSW 9 16 1024.5 - - - - - - - - -
21/09:00am 22.2 S 9 20 1024.5 - - - - - - - - -
21/08:30am 21.9 S 10 18 1024.2 - - - - - - - - -
21/08:00am 21.9 S 10 17 1023.9 - - - - - - - - -
21/07:30am 21.4 S 9 20 1023.6 - - - - - - - - -
21/07:00am 21.4 S 10 18 1023.2 - - - - - - - - -
21/06:30am 21.5 S 9 17 1022.7 - - - - - - - - -
21/06:00am 22.1 S 11 20 1022.3 - - - - - - - - -
21/05:30am 22.2 S 9 15 1022.0 - - - - - - - - -
21/05:00am 22.1 S 11 17 1021.6 - - - - - - - - -
21/04:30am 22.0 S 9 15 1021.4 - - - - - - - - -
21/04:00am 22.2 S 9 15 1021.3 - - - - - - - - -
21/03:30am 22.1 S 10 16 1021.1 - - - - - - - - -
21/03:00am 22.1 S 10 15 1021.2 - - - - - - - - -
21/02:30am 22.1 S 9 15 1021.1 - - - - - - - - -
21/02:00am 21.9 S 9 16 1021.1 - - - - - - - - -
21/01:30am 22.1 S 5 12 1021.5 - - - - - - - - -
21/01:00am 22.1 S 8 17 1021.8 - - - - - - - - -
21/12:30am 22.0 S 9 15 1022.2 - - - - - - - - -
21/12:00am 22.1 SW 3 7 1022.6 - - - - - - - - -
 
Date/Time
EST
Temp

°C
Wind Pressure Rain
since 9am
mm
Weather Cloud Vis
km
Sea
Height
m
Swell
Dir
 
Speed
knots
Gust
knots
hPa Trend Height
m
Period
s
Dir
20/11:30pm 22.1 SSW 4 9 1023.2 - - - - - - - - -
20/11:00pm 22.1 SW 4 12 1023.6 - - - - - - - - -
20/10:30pm 22.0 SSW 5 10 1023.7 - - - - - - - - -
20/10:00pm 21.9 SSW 5 12 1023.7 - - - - - - - - -
20/09:30pm 21.9 SW 4 10 1023.6 - - - - - - - - -
20/09:00pm 21.9 S 6 13 1023.5 - - - - - - - - -
20/08:30pm 21.8 SSW 4 11 1023.1 - - - - - - - - -

Other Formats:

Comma delimited format used in spreadsheet applications
http://www.bom.gov.au/fwo/IDQ60701/IDQ60701.95298.axf

JavaScript Object Notation format (JSON) in row-major order
http://www.bom.gov.au/fwo/IDQ60701/IDQ60701.95298.json